Time;durP1;ratioP1;P1;durP2;ratioP2;P2;SDS_P1;SDS_P2;PMS_P1;PMS_P2;Temp;Humidity;BMP_temperature;BMP_pressure;BME280_temperature;BME280_humidity;BME280_pressure;Samples;Min_cycle;Max_cycle;Signal;HPM_P1;HPM_P2
2023/12/08 00:02:01;;;;;;;28.83;16.40;;;;;;;0.31;100.00;101121.78;4911959;29;20047;-78
2023/12/08 00:04:29;;;;;;;25.35;14.75;;;;;;;0.31;100.00;101120.06;4968504;28;20062;-80
2023/12/08 00:07:04;;;;;;;28.67;15.63;;;;;;;0.31;100.00;101117.47;4935349;28;20069;-80
2023/12/08 00:09:32;;;;;;;27.33;16.02;;;;;;;0.30;100.00;101120.91;4937332;28;20061;-79
2023/12/08 00:12:01;;;;;;;30.35;15.05;;;;;;;0.30;100.00;101104.44;4944489;28;20057;-80
2023/12/08 00:14:29;;;;;;;27.42;16.05;;;;;;;0.29;100.00;101105.25;4935435;28;20412;-79
2023/12/08 00:16:56;;;;;;;28.02;15.80;;;;;;;0.28;100.00;101111.25;4925189;28;20054;-79
2023/12/08 00:19:24;;;;;;;23.25;14.25;;;;;;;0.26;100.00;101092.13;4957453;28;20055;-79
2023/12/08 00:21:52;;;;;;;22.70;13.68;;;;;;;0.25;100.00;101091.25;4922823;28;20050;-78
2023/12/08 00:24:19;;;;;;;31.17;15.90;;;;;;;0.24;100.00;101088.59;4928967;29;20055;-79
2023/12/08 00:26:48;;;;;;;24.92;14.15;;;;;;;0.26;100.00;101076.59;4886972;29;20287;-79
2023/12/08 00:29:19;;;;;;;27.67;15.15;;;;;;;0.25;100.00;101061.88;4922529;29;20552;-79
2023/12/08 00:31:47;;;;;;;;;;;;;;;0.24;100.00;101060.94;4865538;28;22340;-78
2023/12/08 00:34:16;;;;;;;29.88;16.27;;;;;;;0.25;100.00;101057.56;4912880;28;19922;-81
2023/12/08 00:36:44;;;;;;;28.50;15.18;;;;;;;0.24;100.00;101045.41;4926088;29;20051;-80
2023/12/08 00:39:12;;;;;;;29.90;16.60;;;;;;;0.24;100.00;101040.22;4930942;28;20050;-79
2023/12/08 00:41:39;;;;;;;25.70;16.02;;;;;;;0.27;100.00;101048.16;4918366;29;20051;-80
2023/12/08 00:44:08;;;;;;;27.15;16.25;;;;;;;0.24;100.00;101042.81;4916005;29;20055;-79
2023/12/08 00:46:36;;;;;;;30.30;17.70;;;;;;;0.26;100.00;101055.84;4930577;29;20054;-79
2023/12/08 00:49:03;;;;;;;29.27;17.42;;;;;;;0.25;100.00;101048.91;4868984;29;20056;-80
2023/12/08 00:51:31;;;;;;;28.73;18.10;;;;;;;0.25;100.00;101054.09;4912667;29;20043;-78
2023/12/08 00:53:59;;;;;;;32.53;18.17;;;;;;;0.24;100.00;101047.13;4951384;29;20046;-80
2023/12/08 00:56:28;;;;;;;30.67;18.10;;;;;;;0.24;100.00;101037.63;4933576;29;20389;-78
2023/12/08 00:58:56;;;;;;;26.60;16.05;;;;;;;0.23;100.00;101038.47;4913050;28;20062;-80
2023/12/08 01:01:23;;;;;;;29.48;17.88;;;;;;;0.23;100.00;101025.50;4953617;29;20047;-78
2023/12/08 01:03:51;;;;;;;23.90;15.65;;;;;;;0.22;100.00;101030.59;4902681;28;20675;-78
2023/12/08 01:06:19;;;;;;;31.30;19.10;;;;;;;0.22;100.00;101017.66;4918095;29;20398;-79
2023/12/08 01:08:46;;;;;;;31.17;17.92;;;;;;;0.22;100.00;101015.06;4917094;29;20808;-79
2023/12/08 01:11:20;;;;;;;30.27;17.15;;;;;;;0.21;100.00;101010.66;4922299;28;20035;-79
2023/12/08 01:13:47;;;;;;;26.92;17.15;;;;;;;0.19;100.00;101008.03;4970490;28;20036;-80
2023/12/08 01:16:15;;;;;;;29.05;16.25;;;;;;;0.16;100.00;100997.50;4945812;29;20055;-81
2023/12/08 01:18:44;;;;;;;24.85;16.00;;;;;;;0.16;100.00;100997.50;4922188;28;20050;-79
2023/12/08 01:21:12;;;;;;;26.75;16.98;;;;;;;0.15;100.00;100987.94;4931255;28;20050;-78
2023/12/08 01:23:39;;;;;;;26.40;16.80;;;;;;;0.15;100.00;100986.25;4946936;28;20046;-80
2023/12/08 01:26:11;;;;;;;31.55;17.33;;;;;;;0.15;100.00;100986.25;4945045;28;20054;-79
2023/12/08 01:28:38;;;;;;;30.70;17.15;;;;;;;0.15;100.00;100990.53;4907938;28;20043;-80
2023/12/08 01:31:06;;;;;;;23.30;15.27;;;;;;;0.15;100.00;100990.53;4902513;29;20055;-79
2023/12/08 01:33:33;;;;;;;28.20;17.67;;;;;;;0.14;100.00;100983.59;4934842;28;20042;-80
2023/12/08 01:36:01;;;;;;;27.65;16.98;;;;;;;0.14;100.00;100981.00;4927052;28;20058;-79
2023/12/08 01:38:48;;;;;;;27.23;16.60;;;;;;;0.15;100.00;100990.53;4955248;28;20061;-78
2023/12/08 01:41:16;;;;;;;24.20;16.23;;;;;;;0.16;100.00;100993.19;4954882;28;20065;-79
2023/12/08 01:43:43;;;;;;;24.10;15.57;;;;;;;0.18;100.00;100983.78;4953448;28;20046;-78
2023/12/08 01:46:15;;;;;;;27.25;16.63;;;;;;;0.20;100.00;100986.47;4918296;29;20055;-79
2023/12/08 01:48:45;;;;;;;28.85;16.85;;;;;;;0.21;100.00;100982.16;4949538;28;20050;-79
2023/12/08 01:51:15;;;;;;;25.70;15.45;;;;;;;0.22;100.00;100977.06;4909358;28;20058;-80
2023/12/08 01:53:44;;;;;;;24.90;15.90;;;;;;;0.22;100.00;100983.94;4931637;28;20043;-81
2023/12/08 01:56:13;;;;;;;23.98;16.15;;;;;;;0.22;100.00;100981.34;4950492;28;20054;-80
2023/12/08 01:58:44;;;;;;;24.20;15.77;;;;;;;0.22;100.00;100979.66;4939399;28;20073;-79
2023/12/08 02:01:12;;;;;;;25.17;15.25;;;;;;;0.22;100.00;100971.88;4952871;28;20496;-78
2023/12/08 02:03:45;;;;;;;24.10;15.45;;;;;;;0.23;100.00;100970.16;4964896;28;20043;-79
2023/12/08 02:06:13;;;;;;;23.90;16.40;;;;;;;0.25;100.00;100984.09;4895494;28;20436;-79
2023/12/08 02:08:40;;;;;;;24.58;15.63;;;;;;;0.27;100.00;100975.56;4937064;28;20286;-79
2023/12/08 02:11:10;;;;;;;25.88;15.00;;;;;;;0.24;100.00;100970.25;4939992;28;20574;-79
2023/12/08 02:13:42;;;;;;;23.98;16.08;;;;;;;0.26;100.00;100973.78;4914313;28;20047;-80
2023/12/08 02:16:28;;;;;;;24.00;15.88;;;;;;;0.26;100.00;100967.72;4956073;28;20043;-79
2023/12/08 02:18:58;;;;;;;25.63;15.38;;;;;;;0.27;100.00;100965.22;4975362;28;20057;-80
2023/12/08 02:21:26;;;;;;;22.88;14.80;;;;;;;0.27;100.00;100965.22;4918310;28;20069;-79
2023/12/08 02:23:54;;;;;;;24.58;15.05;;;;;;;0.28;100.00;100969.56;4905467;28;20054;-79
2023/12/08 02:26:22;;;;;;;24.85;15.85;;;;;;;0.28;100.00;100961.78;4927613;29;20050;-80
2023/12/08 02:28:49;;;;;;;25.60;14.90;;;;;;;0.28;100.00;100958.31;4945604;28;20047;-79
2023/12/08 02:31:27;;;;;;;22.20;14.25;;;;;;;0.29;100.00;100952.31;4933620;28;20051;-79
2023/12/08 02:33:56;;;;;;;23.55;14.85;;;;;;;0.30;100.00;100947.22;4930816;29;20043;-79
2023/12/08 02:36:25;;;;;;;20.65;14.88;;;;;;;0.30;100.00;100944.63;4897080;28;20062;-79
2023/12/08 02:38:54;;;;;;;24.42;14.95;;;;;;;0.31;100.00;100945.50;4908248;28;20138;-80
2023/12/08 02:41:22;;;;;;;22.15;13.75;;;;;;;0.31;100.00;100938.59;4923737;29;20051;-79
2023/12/08 02:43:50;;;;;;;26.77;15.77;;;;;;;0.33;100.00;100938.69;4903383;29;20686;-79
2023/12/08 02:46:17;;;;;;;20.95;13.73;;;;;;;0.32;100.00;100943.00;4923361;28;20065;-79
2023/12/08 02:48:45;;;;;;;20.80;13.93;;;;;;;0.32;100.00;100930.03;4921194;28;20645;-80
2023/12/08 02:51:21;;;;;;;23.05;12.82;;;;;;;0.32;100.00;100948.19;4961388;28;20043;-80
2023/12/08 02:53:49;;;;;;;22.38;13.93;;;;;;;0.32;100.00;100942.06;4869147;29;20048;-78
2023/12/08 02:56:16;;;;;;;17.55;11.95;;;;;;;0.32;100.00;100932.63;4917884;28;20139;-79
2023/12/08 02:58:45;;;;;;;20.92;13.77;;;;;;;0.33;100.00;100933.50;4936155;28;20050;-79
2023/12/08 03:01:12;;;;;;;20.38;14.50;;;;;;;0.32;100.00;100936.91;4921474;29;20043;-79
2023/12/08 03:03:39;;;;;;;20.90;14.40;;;;;;;0.30;100.00;100934.25;4937355;29;20056;-79
2023/12/08 03:06:07;;;;;;;21.77;14.02;;;;;;;0.31;100.00;100936.00;4929164;28;20415;-79
2023/12/08 03:08:35;;;;;;;21.17;12.88;;;;;;;0.32;100.00;100934.31;4891721;29;20044;-80
2023/12/08 03:11:05;;;;;;;21.05;13.45;;;;;;;0.32;100.00;100924.84;4934305;29;20082;-79
2023/12/08 03:13:32;;;;;;;22.02;14.15;;;;;;;0.32;100.00;100927.44;4914938;29;20051;-79
2023/12/08 03:16:00;;;;;;;23.02;12.90;;;;;;;0.33;100.00;100928.31;4890826;29;20058;-80
2023/12/08 03:18:28;;;;;;;20.05;11.75;;;;;;;0.34;100.00;100928.38;4905359;29;20052;-81
2023/12/08 03:20:56;;;;;;;18.77;12.50;;;;;;;0.34;100.00;100922.28;4939433;28;20058;-80
2023/12/08 03:23:23;;;;;;;18.52;13.70;;;;;;;0.35;100.00;100924.09;4962247;28;20050;-79
2023/12/08 03:25:54;;;;;;;19.33;13.00;;;;;;;0.36;100.00;100926.75;4904837;28;20078;-78
2023/12/08 03:28:21;;;;;;;21.67;12.05;;;;;;;0.37;100.00;100925.03;4935656;28;20065;-79
2023/12/08 03:30:49;;;;;;;23.52;13.27;;;;;;;0.38;100.00;100932.00;4948121;28;20395;-79
2023/12/08 03:33:16;;;;;;;20.27;13.43;;;;;;;0.38;100.00;100932.91;4907342;28;20035;-79
2023/12/08 03:35:43;;;;;;;20.65;12.45;;;;;;;0.40;100.00;100922.59;4950835;28;20050;-80
2023/12/08 03:38:11;;;;;;;19.02;13.52;;;;;;;0.41;100.00;100920.88;4943786;28;20050;-80
2023/12/08 03:40:39;;;;;;;19.25;12.65;;;;;;;0.39;100.00;100903.53;4907459;28;20113;-79
2023/12/08 03:43:06;;;;;;;18.90;12.93;;;;;;;0.41;100.00;100920.88;4962932;28;20468;-81
2023/12/08 03:45:33;;;;;;;17.15;11.10;;;;;;;0.41;100.00;100918.28;4936498;29;20043;-79
2023/12/08 03:48:00;;;;;;;19.42;12.90;;;;;;;0.41;100.00;100932.13;4964691;28;20432;-79
2023/12/08 03:50:29;;;;;;;18.73;12.25;;;;;;;0.41;100.00;100918.28;4936429;28;20055;-79
2023/12/08 03:52:56;;;;;;;20.10;11.60;;;;;;;0.42;100.00;100912.28;4923521;28;20489;-79
2023/12/08 03:55:24;;;;;;;19.45;11.90;;;;;;;0.44;100.00;100915.84;4935644;28;20047;-79
2023/12/08 03:57:51;;;;;;;15.60;11.25;;;;;;;0.43;100.00;100916.66;4934028;28;20051;-80
2023/12/08 04:00:20;;;;;;;18.15;11.65;;;;;;;0.45;100.00;100922.78;4933608;29;20246;-80
2023/12/08 04:02:48;;;;;;;18.75;12.35;;;;;;;0.45;100.00;100915.00;4933981;28;20039;-80
2023/12/08 04:05:15;;;;;;;21.52;13.23;;;;;;;0.44;100.00;100916.72;4920756;28;20535;-79
2023/12/08 04:07:43;;;;;;;17.45;10.88;;;;;;;0.45;100.00;100910.72;4934856;28;20061;-80
2023/12/08 04:10:10;;;;;;;16.55;11.00;;;;;;;0.46;100.00;100893.47;4921305;28;20055;-80
2023/12/08 04:12:38;;;;;;;19.95;12.98;;;;;;;0.47;100.00;100910.78;4902252;28;20509;-80
2023/12/08 04:15:06;;;;;;;21.58;12.73;;;;;;;0.46;100.00;100906.44;4942699;28;20055;-80
2023/12/08 04:17:33;;;;;;;18.90;12.10;;;;;;;0.46;100.00;100903.84;4967222;28;20049;-79
2023/12/08 04:20:01;;;;;;;17.98;12.88;;;;;;;0.46;100.00;100904.72;4926626;28;20043;-79
2023/12/08 04:22:28;;;;;;;22.75;12.77;;;;;;;0.48;100.00;100897.88;4919260;28;20396;-79
2023/12/08 04:24:55;;;;;;;16.42;12.35;;;;;;;0.46;100.00;100893.47;4932911;29;20042;-81
2023/12/08 04:27:23;;;;;;;17.88;12.38;;;;;;;0.47;100.00;100892.63;4890185;28;20059;-81
2023/12/08 04:29:51;;;;;;;17.50;12.32;;;;;;;0.49;100.00;100897.09;4936530;29;20047;-81
2023/12/08 04:32:18;;;;;;;18.73;12.55;;;;;;;0.49;100.00;100897.09;4971038;28;20049;-79
2023/12/08 04:34:45;;;;;;;17.38;11.18;;;;;;;0.51;100.00;100889.34;4924458;28;20042;-80
2023/12/08 04:37:13;;;;;;;18.33;12.45;;;;;;;0.52;100.00;100893.72;4951866;28;20058;-80
2023/12/08 04:39:40;;;;;;;17.55;12.77;;;;;;;0.52;100.00;100889.44;4948827;28;20047;-79
2023/12/08 04:42:07;;;;;;;19.05;12.10;;;;;;;0.52;100.00;100884.25;4875201;29;20528;-81
2023/12/08 04:44:35;;;;;;;18.85;11.88;;;;;;;0.52;100.00;100888.53;4918082;28;20051;-80
2023/12/08 04:47:03;;;;;;;17.42;11.93;;;;;;;0.51;100.00;100889.34;4951093;28;20051;-80
2023/12/08 04:49:30;;;;;;;15.82;11.05;;;;;;;0.51;100.00;100891.94;4909258;28;20424;-81
2023/12/08 04:51:58;;;;;;;17.83;12.07;;;;;;;0.50;100.00;100888.47;4915691;28;20424;-80
2023/12/08 04:54:25;;;;;;;19.73;11.57;;;;;;;0.49;100.00;100883.22;4950233;28;20054;-80
2023/12/08 04:56:53;;;;;;;21.65;12.57;;;;;;;0.50;100.00;100877.22;4892912;28;20050;-80
2023/12/08 04:59:20;;;;;;;19.08;10.77;;;;;;;0.50;100.00;100877.22;4934498;29;20416;-80
2023/12/08 05:01:51;;;;;;;17.88;11.65;;;;;;;0.49;100.00;100857.28;4908655;28;20057;-79
2023/12/08 05:04:19;;;;;;;19.67;12.45;;;;;;;0.51;100.00;100858.25;4929151;29;20124;-80
2023/12/08 05:06:47;;;;;;;18.30;12.57;;;;;;;0.51;100.00;100855.66;4904948;29;20453;-80
2023/12/08 05:09:17;;;;;;;16.60;11.52;;;;;;;0.51;100.00;100848.78;4914803;28;20051;-81
2023/12/08 05:11:47;;;;;;;18.33;12.55;;;;;;;0.52;100.00;100847.94;4915956;28;20065;-80
2023/12/08 05:14:15;;;;;;;22.38;12.57;;;;;;;0.51;100.00;100851.38;4912987;28;20047;-80
2023/12/08 05:16:45;;;;;;;18.73;12.25;;;;;;;0.50;100.00;100833.16;4940058;28;20050;-80
2023/12/08 05:19:13;;;;;;;;;;;;;;;0.47;100.00;100844.25;4939761;28;20059;-79
2023/12/08 05:21:40;;;;;;;19.77;12.25;;;;;;;0.43;100.00;100842.34;4966262;28;19926;-79
2023/12/08 05:24:08;;;;;;;19.88;12.80;;;;;;;0.41;100.00;100828.44;4973074;28;20042;-80
2023/12/08 05:26:35;;;;;;;19.73;13.30;;;;;;;0.41;100.00;100828.44;4957537;28;20115;-79
2023/12/08 05:29:05;;;;;;;17.50;12.10;;;;;;;0.38;100.00;100824.00;4938862;28;20054;-80
2023/12/08 05:31:32;;;;;;;19.17;12.88;;;;;;;0.36;100.00;100823.06;4954267;28;20047;-80
2023/12/08 05:34:00;;;;;;;19.42;13.05;;;;;;;0.35;100.00;100818.69;4951611;29;20058;-78
2023/12/08 05:36:29;;;;;;;19.52;12.77;;;;;;;0.33;100.00;100819.44;4976305;28;20045;-80
2023/12/08 05:38:58;;;;;;;20.02;12.75;;;;;;;0.29;100.00;100815.81;4953069;28;20057;-80
2023/12/08 05:41:25;;;;;;;19.75;12.88;;;;;;;0.29;100.00;100821.00;4965138;28;20039;-79
2023/12/08 05:43:55;;;;;;;20.20;13.27;;;;;;;0.27;100.00;100817.47;4947300;28;20047;-79
2023/12/08 05:46:22;;;;;;;20.23;12.77;;;;;;;0.26;100.00;100810.50;4939054;29;20061;-79
2023/12/08 05:48:49;;;;;;;21.98;13.35;;;;;;;0.24;100.00;100814.72;4949790;28;20063;-79
2023/12/08 05:51:17;;;;;;;25.60;14.20;;;;;;;0.22;100.00;100816.38;4957640;28;20042;-78
2023/12/08 05:53:45;;;;;;;20.40;13.18;;;;;;;0.21;100.00;100816.28;4959775;29;20058;-79
2023/12/08 05:56:12;;;;;;;22.88;13.82;;;;;;;0.21;100.00;100809.44;4981473;28;20061;-79
2023/12/08 05:58:39;;;;;;;21.77;13.65;;;;;;;0.19;100.00;100806.75;4960921;28;20047;-79
2023/12/08 06:01:07;;;;;;;24.70;13.27;;;;;;;0.18;100.00;100815.34;4913366;28;20061;-79
2023/12/08 06:03:34;;;;;;;24.48;13.50;;;;;;;0.16;100.00;100814.38;4948881;28;20065;-81
2023/12/08 06:06:02;;;;;;;24.50;12.85;;;;;;;0.17;100.00;100815.25;4961446;28;20054;-80
2023/12/08 06:08:31;;;;;;;20.75;13.07;;;;;;;0.16;100.00;100806.63;4950047;28;20058;-81
2023/12/08 06:10:59;;;;;;;21.92;14.15;;;;;;;0.16;100.00;100803.16;4943726;28;20059;-81
2023/12/08 06:13:26;;;;;;;22.15;14.50;;;;;;;0.16;100.00;100814.38;4942544;28;20054;-81
2023/12/08 06:15:54;;;;;;;21.90;13.32;;;;;;;0.14;100.00;100812.56;4897322;29;20055;-80
2023/12/08 06:18:23;;;;;;;26.02;13.80;;;;;;;0.16;100.00;100803.16;4973790;28;20050;-80
2023/12/08 06:20:54;;;;;;;22.52;14.35;;;;;;;0.17;100.00;100803.22;4944852;29;20051;-79
2023/12/08 06:23:31;;;;;;;24.20;14.93;;;;;;;0.18;100.00;100809.28;4973442;28;22568;-80
2023/12/08 06:25:59;;;;;;;25.83;14.77;;;;;;;0.17;100.00;100799.72;4956803;28;20065;-81
2023/12/08 06:28:28;;;;;;;25.70;14.23;;;;;;;0.17;100.00;100813.59;4917743;28;20043;-80
2023/12/08 06:30:55;;;;;;;23.27;14.32;;;;;;;0.14;100.00;100813.44;4921216;28;20061;-79
2023/12/08 06:33:22;;;;;;;22.80;14.13;;;;;;;0.13;100.00;100808.19;4945038;28;20611;-82
2023/12/08 06:35:50;;;;;;;23.92;14.60;;;;;;;0.12;100.00;100798.66;4910519;28;20070;-77
2023/12/08 06:38:17;;;;;;;22.08;14.65;;;;;;;0.11;100.00;100812.41;4943263;28;20423;-76
2023/12/08 06:40:44;;;;;;;27.15;15.40;;;;;;;0.10;100.00;100805.47;4930544;28;20035;-76
2023/12/08 06:43:12;;;;;;;22.40;14.00;;;;;;;0.07;100.00;100807.91;4948725;28;20051;-76
2023/12/08 06:45:39;;;;;;;27.55;15.85;;;;;;;0.06;100.00;100804.44;4906645;28;20059;-76
2023/12/08 06:48:07;;;;;;;26.95;16.38;;;;;;;0.07;100.00;100807.91;4926585;28;20062;-75
2023/12/08 06:50:35;;;;;;;25.77;15.70;;;;;;;0.05;100.00;100801.78;4930511;28;20062;-77
2023/12/08 06:53:03;;;;;;;26.65;15.95;;;;;;;0.04;100.00;100803.50;4945725;28;20055;-76
2023/12/08 06:55:30;;;;;;;30.90;17.20;;;;;;;0.05;100.00;100810.44;4953792;28;20049;-75
2023/12/08 06:57:57;;;;;;;26.42;17.40;;;;;;;0.05;100.00;100817.31;4918752;28;20329;-76
2023/12/08 07:00:25;;;;;;;24.33;15.63;;;;;;;0.06;100.00;100806.13;4913386;28;20061;-76
2023/12/08 07:02:52;;;;;;;28.92;16.25;;;;;;;0.06;100.00;100803.53;4888677;28;20512;-77
2023/12/08 07:05:20;;;;;;;28.00;16.58;;;;;;;0.06;100.00;100800.94;4935288;28;20058;-77
2023/12/08 07:07:50;;;;;;;29.30;17.13;;;;;;;0.05;100.00;100796.59;4932468;28;20058;-76
2023/12/08 07:10:18;;;;;;;29.05;16.73;;;;;;;0.05;100.00;100801.78;4930623;28;20051;-77
2023/12/08 07:12:45;;;;;;;25.88;16.33;;;;;;;0.05;100.00;100794.00;4915278;28;20054;-76
2023/12/08 07:15:12;;;;;;;31.23;15.63;;;;;;;0.06;100.00;100798.34;4932132;28;20039;-76
2023/12/08 07:17:40;;;;;;;29.45;16.08;;;;;;;0.06;100.00;100811.31;4910315;28;20061;-76
2023/12/08 07:20:09;;;;;;;26.92;15.80;;;;;;;0.06;100.00;100811.31;4963196;28;20066;-76
2023/12/08 07:22:37;;;;;;;26.08;16.08;;;;;;;0.04;100.00;100806.09;4934914;28;20054;-76
2023/12/08 07:25:05;;;;;;;25.88;15.05;;;;;;;0.04;100.00;100820.72;4921280;28;20396;-76
2023/12/08 07:27:32;;;;;;;24.70;15.55;;;;;;;0.04;100.00;100811.25;4954199;28;20047;-76
2023/12/08 07:30:03;;;;;;;27.77;16.05;;;;;;;0.04;100.00;100820.72;4930757;28;20059;-76
2023/12/08 07:32:30;;;;;;;26.83;15.05;;;;;;;0.03;100.00;100827.63;4928519;28;20054;-77
2023/12/08 07:34:58;;;;;;;25.73;13.00;;;;;;;0.05;100.00;100835.47;4953443;28;20043;-76
2023/12/08 07:37:25;;;;;;;27.45;14.95;;;;;;;0.05;100.00;100817.31;4912708;28;20539;-77
2023/12/08 07:39:53;;;;;;;21.63;14.20;;;;;;;0.03;100.00;100808.59;4953099;28;20050;-77
2023/12/08 07:42:21;;;;;;;23.88;13.77;;;;;;;0.02;100.00;100807.72;4923142;28;20043;-77
2023/12/08 07:44:48;;;;;;;21.85;14.68;;;;;;;0.01;100.00;100811.13;4947761;28;20054;-76
2023/12/08 07:47:16;;;;;;;24.70;14.32;;;;;;;0.00;100.00;100806.75;4916479;28;20590;-76
2023/12/08 07:49:43;;;;;;;23.55;13.85;;;;;;;0.01;100.00;100800.75;4937197;29;20413;-76
2023/12/08 07:52:13;;;;;;;24.98;14.00;;;;;;;0.03;100.00;100808.59;4947185;28;20791;-76
2023/12/08 07:54:40;;;;;;;26.25;15.00;;;;;;;0.02;100.00;100810.31;4953730;28;20047;-77
2023/12/08 07:57:08;;;;;;;25.83;13.77;;;;;;;0.02;100.00;100786.09;4920312;28;20580;-75
2023/12/08 07:59:36;;;;;;;24.95;15.18;;;;;;;0.01;100.00;100776.56;4924489;28;20420;-76
2023/12/08 08:02:03;;;;;;;27.60;14.98;;;;;;;0.01;100.00;100774.84;4903450;28;20432;-75
2023/12/08 08:04:31;;;;;;;26.98;15.38;;;;;;;0.01;100.00;100774.84;4942478;28;20050;-76
2023/12/08 08:06:58;;;;;;;27.60;15.15;;;;;;;0.01;100.00;100779.16;4951629;28;20058;-76
2023/12/08 08:09:26;;;;;;;26.75;15.40;;;;;;;0.02;100.00;100793.84;4952436;28;20054;-76
2023/12/08 08:11:53;;;;;;;24.63;15.98;;;;;;;0.04;100.00;100795.72;4928786;28;20062;-76
2023/12/08 08:14:20;;;;;;;24.35;14.65;;;;;;;0.07;100.00;100807.91;4904133;29;20044;-76
2023/12/08 08:16:48;;;;;;;24.83;13.80;;;;;;;0.07;100.00;100805.31;4935063;28;20050;-76
2023/12/08 08:19:15;;;;;;;26.75;15.05;;;;;;;0.09;100.00;100819.22;4883029;28;20061;-75
2023/12/08 08:21:43;;;;;;;28.23;14.45;;;;;;;0.11;100.00;100812.41;4940580;28;20067;-76
2023/12/08 08:24:30;;;;;;;23.05;12.95;;;;;;;0.13;100.00;100828.91;4969248;28;20043;-76
2023/12/08 08:26:57;;;;;;;25.67;14.70;;;;;;;0.14;100.00;100828.09;4960127;28;20050;-76
2023/12/08 08:29:25;;;;;;;26.58;14.27;;;;;;;0.14;100.00;100828.09;4939168;28;20363;-76
2023/12/08 08:31:52;;;;;;;25.08;14.25;;;;;;;0.15;100.00;100825.59;4929752;28;20051;-76
2023/12/08 08:34:20;;;;;;;23.83;13.75;;;;;;;0.16;100.00;100821.28;4918626;28;20095;-76
2023/12/08 08:36:47;;;;;;;25.17;15.02;;;;;;;0.17;100.00;100812.66;4952989;28;20062;-76
2023/12/08 08:39:15;;;;;;;22.75;13.40;;;;;;;0.16;100.00;100810.91;4924855;28;20066;-76
2023/12/08 08:41:45;;;;;;;24.20;13.55;;;;;;;0.15;100.00;100812.63;4921391;28;20086;-76
2023/12/08 08:44:13;;;;;;;24.58;14.05;;;;;;;0.15;100.00;100819.50;4911884;28;20089;-75
2023/12/08 08:46:41;;;;;;;25.75;14.70;;;;;;;0.16;100.00;100823.88;4950276;28;20039;-76
2023/12/08 08:49:09;;;;;;;21.65;13.13;;;;;;;0.15;100.00;100820.41;4914962;28;20058;-75
2023/12/08 08:51:40;;;;;;;26.35;13.52;;;;;;;0.16;100.00;100824.75;4935750;28;20583;-75
2023/12/08 08:54:07;;;;;;;23.83;14.43;;;;;;;0.18;100.00;100825.72;4946529;28;20047;-75
2023/12/08 08:56:35;;;;;;;22.17;12.82;;;;;;;0.18;100.00;100815.34;4965948;28;20042;-77
2023/12/08 08:59:03;;;;;;;24.13;13.88;;;;;;;0.21;100.00;100819.78;4947754;28;20074;-75
2023/12/08 09:01:31;;;;;;;26.48;14.30;;;;;;;0.22;100.00;100818.06;4932267;28;20050;-75
2023/12/08 09:03:58;;;;;;;27.30;14.63;;;;;;;0.22;100.00;100825.84;4911998;28;20042;-75
2023/12/08 09:06:25;;;;;;;26.75;14.50;;;;;;;0.20;100.00;100810.22;4945204;28;20042;-75
2023/12/08 09:08:53;;;;;;;28.45;15.13;;;;;;;0.22;100.00;100810.31;4945196;28;20054;-75
2023/12/08 09:11:20;;;;;;;27.85;15.18;;;;;;;0.24;100.00;100819.03;4925570;28;20491;-77
2023/12/08 09:13:48;;;;;;;23.23;13.52;;;;;;;0.24;100.00;100829.41;4931015;28;20050;-75
2023/12/08 09:16:15;;;;;;;26.08;15.18;;;;;;;0.24;100.00;100822.50;4892685;28;20875;-75
2023/12/08 09:18:42;;;;;;;25.13;14.90;;;;;;;0.24;100.00;100824.22;4931190;28;20448;-75
2023/12/08 09:21:10;;;;;;;25.10;14.25;;;;;;;0.25;100.00;100826.88;4915719;28;20058;-75
2023/12/08 09:23:37;;;;;;;30.27;14.65;;;;;;;0.27;100.00;100821.78;4928701;28;20057;-76
2023/12/08 09:26:05;;;;;;;25.63;14.27;;;;;;;0.27;100.00;100825.25;4913613;28;20058;-76
2023/12/08 09:28:32;;;;;;;25.38;14.38;;;;;;;0.28;100.00;100832.19;4964572;28;20050;-76
2023/12/08 09:31:00;;;;;;;26.20;14.98;;;;;;;0.28;100.00;100820.94;4908053;28;20071;-75
2023/12/08 09:33:28;;;;;;;28.90;16.20;;;;;;;0.29;100.00;100827.91;4949553;28;20051;-76
2023/12/08 09:35:57;;;;;;;26.55;15.20;;;;;;;0.29;100.00;100830.50;4922588;28;20050;-74
2023/12/08 09:38:25;;;;;;;25.83;14.35;;;;;;;0.30;100.00;100825.38;4922001;28;20526;-76
2023/12/08 09:41:04;;;;;;;28.48;15.73;;;;;;;0.31;100.00;100819.38;4916448;28;20053;-74
2023/12/08 09:43:44;;;;;;;26.08;14.63;;;;;;;0.33;100.00;100822.91;4944693;28;20764;-76
2023/12/08 09:46:14;;;;;;;24.33;13.73;;;;;;;0.32;100.00;100823.75;4946357;28;20082;-76
2023/12/08 09:48:45;;;;;;;27.38;14.07;;;;;;;0.32;100.00;100828.03;4943217;28;20075;-76
2023/12/08 09:51:14;;;;;;;27.20;16.00;;;;;;;0.33;100.00;100822.03;4956756;28;20055;-75
2023/12/08 09:53:42;;;;;;;31.23;16.80;;;;;;;0.35;100.00;100817.81;4915755;28;20615;-74
2023/12/08 09:56:11;;;;;;;30.05;15.45;;;;;;;0.36;100.00;100815.28;4924722;28;20043;-76
2023/12/08 09:58:39;;;;;;;26.77;14.85;;;;;;;0.36;100.00;100810.09;4943697;28;20046;-76
2023/12/08 10:01:13;;;;;;;30.13;16.20;;;;;;;0.36;100.00;100804.03;4933815;28;20046;-76
2023/12/08 10:03:41;;;;;;;24.67;15.02;;;;;;;0.35;100.00;100803.13;4921337;28;20035;-76
2023/12/08 10:06:09;;;;;;;28.35;16.85;;;;;;;0.37;100.00;100803.19;4922847;28;20440;-76
2023/12/08 10:08:37;;;;;;;23.85;13.70;;;;;;;0.37;100.00;100792.84;4888581;28;20047;-76
2023/12/08 10:11:05;;;;;;;28.42;14.43;;;;;;;0.39;100.00;100794.66;4927828;28;20540;-75
2023/12/08 10:13:33;;;;;;;25.42;13.70;;;;;;;0.41;100.00;100792.13;4946893;28;20054;-76
2023/12/08 10:16:00;;;;;;;24.05;14.32;;;;;;;0.43;100.00;100792.22;4922953;28;20051;-77
2023/12/08 10:18:28;;;;;;;26.02;15.05;;;;;;;0.45;100.00;100799.22;4913539;28;20485;-75
2023/12/08 10:21:16;;;;;;;28.00;14.85;;;;;;;0.49;100.00;100803.75;4923704;28;20054;-75
2023/12/08 10:23:46;;;;;;;25.55;14.70;;;;;;;0.51;100.00;100808.97;4900874;28;20504;-75
2023/12/08 10:26:15;;;;;;;30.83;15.00;;;;;;;0.53;100.00;100828.06;4944290;28;20042;-75
2023/12/08 10:28:43;;;;;;;24.88;14.15;;;;;;;0.54;100.00;100807.41;4937082;28;20062;-76
2023/12/08 10:31:10;;;;;;;24.35;14.02;;;;;;;0.55;100.00;100809.19;4914998;28;20054;-76
2023/12/08 10:33:40;;;;;;;23.73;15.05;;;;;;;0.56;100.00;100818.72;4899090;28;20050;-76
2023/12/08 10:36:08;;;;;;;27.77;13.35;;;;;;;0.57;100.00;100812.72;4930948;28;20432;-77
2023/12/08 10:38:36;;;;;;;23.25;14.02;;;;;;;0.59;100.00;100807.63;4917816;28;20059;-75
2023/12/08 10:41:04;;;;;;;27.65;16.00;;;;;;;0.59;100.00;100797.25;4899732;28;20051;-76
2023/12/08 10:43:32;;;;;;;29.92;17.20;;;;;;;0.59;100.00;100786.88;4964419;28;20054;-75
2023/12/08 10:46:00;;;;;;;28.65;15.55;;;;;;;0.60;100.00;100793.81;4944330;28;20059;-75
2023/12/08 10:48:28;;;;;;;25.83;15.48;;;;;;;0.62;100.00;100794.75;4947718;28;20050;-75
2023/12/08 10:50:56;;;;;;;24.17;13.82;;;;;;;0.62;100.00;100792.16;4934102;28;20042;-74
2023/12/08 10:53:25;;;;;;;29.85;17.33;;;;;;;0.65;100.00;100794.91;4955432;28;20058;-76
2023/12/08 10:56:00;;;;;;;23.92;14.70;;;;;;;0.66;100.00;100796.69;4897564;28;20361;-76
2023/12/08 10:58:28;;;;;;;28.45;15.25;;;;;;;0.68;100.00;100783.75;4950085;28;20043;-75
2023/12/08 11:01:00;;;;;;;24.80;15.90;;;;;;;0.72;100.00;100789.16;4906637;28;20047;-75
2023/12/08 11:03:35;;;;;;;23.88;15.10;;;;;;;0.76;100.00;100795.38;4913900;28;20055;-75
2023/12/08 11:06:21;;;;;;;27.30;15.65;;;;;;;0.77;100.00;100798.00;4903855;28;20058;-75
2023/12/08 11:08:55;;;;;;;28.40;15.13;;;;;;;0.82;100.00;100799.91;4941115;28;20073;-75
2023/12/08 11:11:26;;;;;;;24.92;14.65;;;;;;;0.83;100.00;100799.09;4901511;28;20416;-75
2023/12/08 11:14:07;;;;;;;23.52;14.07;;;;;;;0.83;100.00;100797.38;4945504;28;20812;-76
2023/12/08 11:16:45;;;;;;;29.33;14.43;;;;;;;0.85;100.00;100797.44;4927798;28;20047;-76